createdAt,value
2023-02-03T00:01:58.208Z,0.28
2023-02-03T00:04:25.387Z,0.26
2023-02-03T00:06:52.514Z,0.26
2023-02-03T00:09:20.791Z,0.25
2023-02-03T00:11:48.020Z,0.26
2023-02-03T00:14:15.164Z,0.26
2023-02-03T00:16:42.190Z,0.22
2023-02-03T00:19:09.400Z,0.20
2023-02-03T00:21:36.322Z,0.19
2023-02-03T00:24:03.563Z,0.18
2023-02-03T00:26:30.495Z,0.18
2023-02-03T00:29:00.357Z,0.18
2023-02-03T00:31:27.383Z,0.20
2023-02-03T00:33:56.724Z,0.17
2023-02-03T00:36:24.211Z,0.13
2023-02-03T00:38:51.517Z,0.13
2023-02-03T00:41:19.817Z,0.12
2023-02-03T00:43:47.813Z,0.15
2023-02-03T00:46:14.961Z,0.14
2023-02-03T00:48:42.214Z,0.12
2023-02-03T00:51:09.109Z,0.12
2023-02-03T00:53:36.316Z,0.10
2023-02-03T00:56:03.776Z,0.12
2023-02-03T00:58:30.961Z,0.15
2023-02-03T01:00:57.920Z,0.14
2023-02-03T01:03:25.292Z,0.12
2023-02-03T01:05:52.265Z,0.15
2023-02-03T01:08:20.033Z,0.15
2023-02-03T01:10:46.973Z,0.12
2023-02-03T01:13:14.134Z,0.18
2023-02-03T01:15:48.303Z,0.19
2023-02-03T01:18:15.672Z,0.19
2023-02-03T01:20:42.571Z,0.18
2023-02-03T01:23:09.760Z,0.16
2023-02-03T01:25:36.723Z,0.15
2023-02-03T01:28:06.126Z,0.18
2023-02-03T01:30:33.572Z,0.18
2023-02-03T01:33:00.791Z,0.15
2023-02-03T01:35:27.690Z,0.15
2023-02-03T01:37:54.812Z,0.16
2023-02-03T01:40:21.770Z,0.16
2023-02-03T01:42:49.232Z,0.14
2023-02-03T01:45:19.448Z,0.15
2023-02-03T01:47:57.008Z,0.12
2023-02-03T01:50:34.207Z,0.14
2023-02-03T01:53:08.905Z,0.15
2023-02-03T01:55:38.986Z,0.14
2023-02-03T01:58:10.939Z,0.10
2023-02-03T02:00:39.230Z,0.15
2023-02-03T02:03:09.101Z,0.11
2023-02-03T02:05:56.982Z,0.12
2023-02-03T02:08:24.695Z,0.12
2023-02-03T02:10:51.853Z,0.12
2023-02-03T02:13:20.341Z,0.10
2023-02-03T02:16:10.130Z,0.07
2023-02-03T02:19:01.831Z,0.07
2023-02-03T02:21:40.567Z,0.04
2023-02-03T02:24:07.609Z,-0.05
2023-02-03T02:26:48.889Z,-0.08
2023-02-03T02:29:37.918Z,-0.12
2023-02-03T02:32:10.630Z,-0.19
2023-02-03T02:34:49.836Z,-0.30
2023-02-03T02:37:26.697Z,-0.47
2023-02-03T02:40:03.335Z,-0.57
2023-02-03T02:42:42.636Z,-0.66
2023-02-03T02:45:21.528Z,-0.73
2023-02-03T02:47:50.710Z,-0.82
2023-02-03T02:50:23.624Z,-0.81
2023-02-03T02:52:51.732Z,-0.76
2023-02-03T02:55:27.992Z,-0.73
2023-02-03T02:57:58.525Z,-0.70
2023-02-03T03:00:26.063Z,-0.68
2023-02-03T03:02:53.087Z,-0.70
2023-02-03T03:05:21.852Z,-0.71
2023-02-03T03:08:02.811Z,-0.69
2023-02-03T03:10:32.960Z,-0.68
2023-02-03T03:13:05.042Z,-0.73
2023-02-03T03:15:34.467Z,-0.78
2023-02-03T03:18:13.586Z,-0.81
2023-02-03T03:20:43.106Z,-0.81
2023-02-03T03:23:32.047Z,-0.85
2023-02-03T03:26:44.130Z,-0.83
2023-02-03T03:29:35.327Z,-0.85
2023-02-03T03:32:03.669Z,-0.84
2023-02-03T03:34:32.423Z,-0.83
2023-02-03T03:37:12.280Z,-0.89
2023-02-03T03:40:08.763Z,-0.91
2023-02-03T03:42:48.218Z,-0.93
2023-02-03T03:45:27.029Z,-0.95
2023-02-03T03:48:03.921Z,-0.95
2023-02-03T03:50:35.740Z,-0.94
2023-02-03T03:53:06.933Z,-0.93
2023-02-03T03:55:36.509Z,-0.93
2023-02-03T03:58:11.110Z,-0.93
2023-02-03T04:00:40.527Z,-0.89
2023-02-03T04:03:13.890Z,-0.88
2023-02-03T04:05:41.052Z,-0.89
2023-02-03T04:08:08.379Z,-0.97
2023-02-03T04:10:38.283Z,-0.98
2023-02-03T04:13:06.560Z,-1.01
2023-02-03T04:15:33.889Z,-1.05
2023-02-03T04:18:01.760Z,-1.11
2023-02-03T04:20:30.045Z,-1.12
2023-02-03T04:22:57.904Z,-1.12
2023-02-03T04:25:25.468Z,-1.14
2023-02-03T04:27:52.731Z,-1.16
2023-02-03T04:30:19.742Z,-1.14
2023-02-03T04:32:46.929Z,-1.12
2023-02-03T04:35:14.313Z,-1.11
2023-02-03T04:37:41.775Z,-1.08
2023-02-03T04:40:10.315Z,-1.09
2023-02-03T04:42:38.985Z,-1.09
2023-02-03T04:45:08.051Z,-1.08
2023-02-03T04:47:35.286Z,-1.08
2023-02-03T04:50:02.666Z,-1.06
2023-02-03T04:52:29.811Z,-1.06
2023-02-03T04:54:56.760Z,-1.06
2023-02-03T04:57:23.960Z,-1.02
2023-02-03T04:59:50.834Z,-1.00
2023-02-03T05:02:17.928Z,-0.95
2023-02-03T05:04:44.876Z,-0.95
2023-02-03T05:07:12.454Z,-0.94
2023-02-03T05:09:39.314Z,-0.91
2023-02-03T05:12:06.704Z,-0.89
2023-02-03T05:14:33.593Z,-0.89
2023-02-03T05:17:00.765Z,-0.90
2023-02-03T05:19:27.689Z,-0.84
2023-02-03T05:21:54.825Z,-0.91
2023-02-03T05:24:21.718Z,-0.90
2023-02-03T05:26:48.993Z,-0.94
2023-02-03T05:29:15.903Z,-0.95
2023-02-03T05:31:43.244Z,-0.96
2023-02-03T05:34:10.211Z,-1.03
2023-02-03T05:36:37.420Z,-1.07
2023-02-03T05:39:04.544Z,-1.08
2023-02-03T05:41:50.428Z,-1.11
2023-02-03T05:44:17.299Z,-1.15
2023-02-03T05:46:44.463Z,-1.19
2023-02-03T05:49:11.364Z,-1.24
2023-02-03T05:51:39.549Z,-1.29
2023-02-03T05:54:07.327Z,-1.27
2023-02-03T05:56:34.569Z,-1.34
2023-02-03T05:59:01.466Z,-1.35
2023-02-03T06:01:28.700Z,-1.38
2023-02-03T06:03:55.746Z,-1.41
2023-02-03T06:06:23.222Z,-1.43
2023-02-03T06:08:52.353Z,-1.48
2023-02-03T06:11:19.497Z,-1.53
2023-02-03T06:13:47.617Z,-1.58
2023-02-03T06:16:14.810Z,-1.61
2023-02-03T06:18:41.827Z,-1.65
2023-02-03T06:21:09.069Z,-1.65
2023-02-03T06:23:35.926Z,-1.70
2023-02-03T06:26:03.128Z,-1.71
2023-02-03T06:28:30.328Z,-1.73
2023-02-03T06:30:57.587Z,-1.67
2023-02-03T06:33:24.481Z,-1.40
2023-02-03T06:35:51.721Z,-1.07
2023-02-03T06:38:18.597Z,-0.98
2023-02-03T06:40:49.191Z,-1.00
2023-02-03T06:43:17.030Z,-1.08
2023-02-03T06:45:47.633Z,-1.07
2023-02-03T06:48:15.012Z,-0.93
2023-02-03T06:50:43.229Z,-0.41
2023-02-03T06:53:10.187Z,0.22
2023-02-03T06:55:37.362Z,0.77
2023-02-03T06:58:04.195Z,0.86
2023-02-03T07:00:31.758Z,0.83
2023-02-03T07:02:59.849Z,0.81
2023-02-03T07:05:28.144Z,0.80
2023-02-03T07:07:55.112Z,0.86
2023-02-03T07:10:22.706Z,0.85
2023-02-03T07:12:50.892Z,0.79
2023-02-03T07:15:18.827Z,0.68
2023-02-03T07:17:54.554Z,0.59
2023-02-03T07:20:23.420Z,0.41
2023-02-03T07:22:58.032Z,0.24
2023-02-03T07:25:26.256Z,0.19
2023-02-03T07:27:53.708Z,0.14
2023-02-03T07:30:21.108Z,0.19
2023-02-03T07:32:49.652Z,0.28
2023-02-03T07:35:17.268Z,0.48
2023-02-03T07:37:44.226Z,0.79
2023-02-03T07:40:12.715Z,1.16
2023-02-03T07:42:47.989Z,1.59
2023-02-03T07:45:17.108Z,2.01
2023-02-03T07:47:44.545Z,2.35
2023-02-03T07:50:12.840Z,3.09
2023-02-03T07:52:39.940Z,4.09
2023-02-03T07:55:07.777Z,5.16
2023-02-03T07:57:34.975Z,6.10
2023-02-03T08:00:02.335Z,6.79
2023-02-03T08:02:29.450Z,7.03
2023-02-03T08:04:58.275Z,7.40
2023-02-03T08:07:25.172Z,7.51
2023-02-03T08:09:52.490Z,7.25
2023-02-03T08:12:19.506Z,6.57
2023-02-03T08:14:46.892Z,6.11
2023-02-03T08:17:13.781Z,5.58
2023-02-03T08:19:41.018Z,4.97
2023-02-03T08:22:07.934Z,4.65
2023-02-03T08:24:35.098Z,4.37
2023-02-03T08:27:02.030Z,4.20
2023-02-03T08:29:29.196Z,4.10
2023-02-03T08:31:57.320Z,3.74
2023-02-03T08:34:24.542Z,3.61
2023-02-03T08:36:51.392Z,3.73
2023-02-03T08:39:18.539Z,3.89
2023-02-03T08:41:45.366Z,3.81
2023-02-03T08:44:12.571Z,3.60
2023-02-03T08:46:44.113Z,3.65
2023-02-03T08:49:11.727Z,3.50
2023-02-03T08:51:40.838Z,3.95
2023-02-03T08:54:08.177Z,4.71
2023-02-03T08:56:35.137Z,5.29
2023-02-03T08:59:02.452Z,5.42
2023-02-03T09:01:29.473Z,5.29
2023-02-03T09:03:56.961Z,5.07
2023-02-03T09:06:26.271Z,4.59
2023-02-03T09:08:53.468Z,4.19
2023-02-03T09:11:20.364Z,3.69
2023-02-03T09:13:48.765Z,3.30
2023-02-03T09:16:18.598Z,2.79
2023-02-03T09:18:46.943Z,2.61
2023-02-03T09:21:31.595Z,2.86
2023-02-03T09:24:03.615Z,3.01
2023-02-03T09:26:30.887Z,3.64
2023-02-03T09:28:58.094Z,4.40
2023-02-03T09:31:25.111Z,4.56
2023-02-03T09:33:52.355Z,4.62
2023-02-03T09:36:19.272Z,4.37
2023-02-03T09:38:46.530Z,3.77
2023-02-03T09:41:50.783Z,3.37
2023-02-03T09:44:24.096Z,3.48
2023-02-03T09:47:00.887Z,3.74
2023-02-03T09:49:38.963Z,4.15
2023-02-03T09:52:13.327Z,4.19
2023-02-03T09:54:55.338Z,3.80
2023-02-03T09:57:25.427Z,3.33
2023-02-03T09:59:54.671Z,3.10
2023-02-03T10:02:30.481Z,2.74
2023-02-03T10:05:36.313Z,2.47
2023-02-03T10:08:22.079Z,2.17
2023-02-03T10:11:10.768Z,2.04
2023-02-03T10:13:59.085Z,1.97
2023-02-03T10:16:37.582Z,1.95
2023-02-03T10:19:12.928Z,1.87
2023-02-03T10:21:47.314Z,1.64
2023-02-03T10:24:29.595Z,1.60
2023-02-03T10:26:57.564Z,1.55
2023-02-03T10:29:45.457Z,1.53
2023-02-03T10:32:13.564Z,1.49
2023-02-03T10:34:47.951Z,1.56
2023-02-03T10:37:35.431Z,1.71
2023-02-03T10:40:03.959Z,1.92
2023-02-03T10:42:52.837Z,2.20
2023-02-03T10:45:21.033Z,2.68
2023-02-03T10:47:53.992Z,3.19
2023-02-03T10:50:31.763Z,3.65
2023-02-03T10:53:32.086Z,4.39
2023-02-03T10:56:11.739Z,4.61
2023-02-03T10:58:46.483Z,4.57
2023-02-03T11:01:15.727Z,4.30
2023-02-03T11:03:45.386Z,4.00
2023-02-03T11:06:17.577Z,3.83
2023-02-03T11:08:48.194Z,3.47
2023-02-03T11:11:21.943Z,3.04
2023-02-03T11:14:17.108Z,3.11
2023-02-03T11:16:47.360Z,3.29
2023-02-03T11:19:22.495Z,3.70
2023-02-03T11:21:54.449Z,3.81
2023-02-03T11:24:28.631Z,3.45
2023-02-03T11:27:04.899Z,3.12
2023-02-03T11:29:37.851Z,3.08
2023-02-03T11:32:17.140Z,3.27
2023-02-03T11:34:59.820Z,3.21
2023-02-03T11:37:33.878Z,3.45
2023-02-03T11:40:06.899Z,3.46
2023-02-03T11:42:36.082Z,3.34
2023-02-03T11:45:18.401Z,3.08
2023-02-03T11:48:10.734Z,2.82
2023-02-03T11:51:12.022Z,2.80
2023-02-03T11:53:55.218Z,2.64
2023-02-03T11:56:33.055Z,2.39
2023-02-03T11:59:11.958Z,2.39
2023-02-03T12:01:57.443Z,2.07
2023-02-03T12:04:48.981Z,2.02
2023-02-03T12:07:48.671Z,2.15
2023-02-03T12:10:40.312Z,2.23
2023-02-03T12:13:29.497Z,2.34
2023-02-03T12:16:02.324Z,2.66
2023-02-03T12:18:38.638Z,2.83
2023-02-03T12:21:26.571Z,2.79
2023-02-03T12:24:00.773Z,2.81
2023-02-03T12:26:35.901Z,2.72
2023-02-03T12:29:21.805Z,2.70
2023-02-03T12:32:24.095Z,2.66
2023-02-03T12:35:12.990Z,2.72
2023-02-03T12:38:03.045Z,2.47
2023-02-03T12:40:38.259Z,2.41
2023-02-03T12:43:50.871Z,2.19
2023-02-03T12:46:24.819Z,2.15
2023-02-03T12:49:10.069Z,2.10
2023-02-03T12:51:52.518Z,2.05
2023-02-03T12:54:42.722Z,2.09
2023-02-03T12:57:38.180Z,2.19
2023-02-03T13:00:30.319Z,2.31
2023-02-03T13:03:25.294Z,2.34
2023-02-03T13:05:56.915Z,2.39
2023-02-03T13:09:01.422Z,2.43
2023-02-03T13:11:41.084Z,2.25
2023-02-03T13:14:22.936Z,2.17
2023-02-03T13:17:05.645Z,2.19
2023-02-03T13:19:43.712Z,2.21
2023-02-03T13:22:15.501Z,2.26
2023-02-03T13:24:55.092Z,2.26
2023-02-03T13:27:37.286Z,2.19
2023-02-03T13:30:07.175Z,2.18
2023-02-03T13:33:09.127Z,2.10
2023-02-03T13:36:04.361Z,2.02
2023-02-03T13:38:34.204Z,2.06
2023-02-03T13:41:14.190Z,1.98
2023-02-03T13:43:49.387Z,1.96
2023-02-03T13:46:32.893Z,1.89
2023-02-03T13:49:03.195Z,1.81
2023-02-03T13:51:43.610Z,1.78
2023-02-03T13:54:33.260Z,1.68
2023-02-03T13:57:03.549Z,1.60
2023-02-03T13:59:43.300Z,1.56
2023-02-03T14:02:19.663Z,1.47
2023-02-03T14:04:46.604Z,1.38
2023-02-03T14:07:34.183Z,1.35
2023-02-03T14:10:15.843Z,1.29
2023-02-03T14:12:52.304Z,1.21
2023-02-03T14:15:33.308Z,1.15
2023-02-03T14:18:07.338Z,1.12
2023-02-03T14:20:39.890Z,1.10
2023-02-03T14:23:15.677Z,1.09
2023-02-03T14:25:47.388Z,1.04
2023-02-03T14:28:20.232Z,0.98
2023-02-03T14:31:05.334Z,0.95
2023-02-03T14:34:05.698Z,0.88
2023-02-03T14:36:41.270Z,0.83
2023-02-03T14:39:17.924Z,0.75
2023-02-03T14:42:01.897Z,0.74
2023-02-03T14:44:31.924Z,0.71
2023-02-03T14:47:16.773Z,0.66
2023-02-03T14:49:49.644Z,0.65
2023-02-03T14:52:39.038Z,0.63
2023-02-03T14:55:16.828Z,0.64
2023-02-03T14:58:07.941Z,0.59
2023-02-03T15:00:35.686Z,0.58
2023-02-03T15:03:11.815Z,0.60
2023-02-03T15:05:43.476Z,0.59
2023-02-03T15:08:41.092Z,0.55
2023-02-03T15:11:33.920Z,0.44
2023-02-03T15:14:19.712Z,0.36
2023-02-03T15:16:53.158Z,0.35
2023-02-03T15:19:24.209Z,0.25
2023-02-03T15:21:51.818Z,0.23
2023-02-03T15:24:23.013Z,0.16
2023-02-03T15:26:55.871Z,0.10
2023-02-03T15:29:36.234Z,0.12
2023-02-03T15:32:12.603Z,0.09
2023-02-03T15:34:49.256Z,0.06
2023-02-03T15:37:51.675Z,0.04
2023-02-03T15:40:21.924Z,-0.01
2023-02-03T15:43:07.021Z,-0.07
2023-02-03T15:45:41.897Z,-0.16
2023-02-03T15:48:23.164Z,-0.24
2023-02-03T15:51:28.259Z,-0.32
2023-02-03T15:54:10.418Z,-0.45
2023-02-03T15:56:54.844Z,-0.47
2023-02-03T15:59:25.188Z,-0.51
2023-02-03T16:01:53.502Z,-0.54
2023-02-03T16:04:22.137Z,-0.57
2023-02-03T16:06:51.635Z,-0.57
2023-02-03T16:09:33.897Z,-0.60
2023-02-03T16:12:28.403Z,-0.66
2023-02-03T16:14:57.651Z,-0.68
2023-02-03T16:17:39.361Z,-0.71
2023-02-03T16:20:12.668Z,-0.76
2023-02-03T16:22:42.607Z,-0.76
2023-02-03T16:25:23.058Z,-0.78
2023-02-03T16:28:35.819Z,-0.78
2023-02-03T16:31:33.779Z,-0.82
2023-02-03T16:34:40.524Z,-0.88
2023-02-03T16:38:02.559Z,-0.91
2023-02-03T16:40:48.321Z,-0.90
2023-02-03T16:43:35.478Z,-0.90
2023-02-03T16:46:21.114Z,-0.89
2023-02-03T16:49:07.083Z,-0.90
2023-02-03T16:51:42.872Z,-0.92
2023-02-03T16:54:13.359Z,-0.94
2023-02-03T16:56:40.839Z,-0.93
2023-02-03T16:59:08.223Z,-0.95
2023-02-03T17:01:35.949Z,-0.94
2023-02-03T17:04:03.314Z,-0.91
2023-02-03T17:06:30.463Z,-0.87
2023-02-03T17:08:59.027Z,-0.83
2023-02-03T17:11:27.075Z,-0.87
2023-02-03T17:13:54.355Z,-0.86
2023-02-03T17:16:23.939Z,-0.85
2023-02-03T17:18:51.736Z,-0.88
2023-02-03T17:21:27.473Z,-0.88
2023-02-03T17:23:55.141Z,-0.88
2023-02-03T17:26:22.076Z,-0.90
2023-02-03T17:28:49.295Z,-0.93
2023-02-03T17:31:20.980Z,-0.90
2023-02-03T17:33:52.271Z,-0.94
2023-02-03T17:36:21.722Z,-0.92
2023-02-03T17:55:23.701Z,-0.91
2023-02-03T17:57:50.859Z,-0.91
2023-02-03T18:00:18.412Z,-0.89
2023-02-03T18:02:49.872Z,-0.91
2023-02-03T18:05:18.553Z,-0.89
2023-02-03T18:07:45.581Z,-0.90
2023-02-03T18:10:12.951Z,-0.93
2023-02-03T18:12:39.888Z,-0.97
2023-02-03T18:15:07.876Z,-0.96
2023-02-03T18:17:34.861Z,-0.94
2023-02-03T18:20:04.052Z,-0.97
2023-02-03T18:22:31.018Z,-0.98
2023-02-03T18:24:58.291Z,-0.99
2023-02-03T18:27:25.172Z,-0.95
2023-02-03T18:29:52.376Z,-0.94
2023-02-03T18:32:20.033Z,-0.94
2023-02-03T18:34:47.228Z,-0.94
2023-02-03T18:37:14.145Z,-0.98
2023-02-03T18:39:41.356Z,-0.95
2023-02-03T18:42:08.307Z,-0.93
2023-02-03T18:44:35.715Z,-0.89
2023-02-03T18:47:07.069Z,-0.95
2023-02-03T18:49:36.610Z,-0.95
2023-02-03T18:52:04.508Z,-0.99
2023-02-03T18:54:31.901Z,-1.01
2023-02-03T18:56:59.140Z,-0.99
2023-02-03T18:59:26.889Z,-1.00
2023-02-03T19:01:54.078Z,-1.01
2023-02-03T19:04:21.552Z,-0.98
2023-02-03T19:06:48.527Z,-0.96
2023-02-03T19:09:18.074Z,-0.92
2023-02-03T19:11:45.273Z,-0.98
2023-02-03T19:14:14.322Z,-1.00
2023-02-03T19:16:41.378Z,-0.98
2023-02-03T19:19:08.937Z,-1.00
2023-02-03T19:21:36.055Z,-0.96
2023-02-03T19:24:03.440Z,-0.96
2023-02-03T19:26:30.448Z,-0.94
2023-02-03T19:28:57.780Z,-0.97
2023-02-03T19:31:25.006Z,-0.96
2023-02-03T19:33:52.308Z,-0.91
2023-02-03T19:36:19.458Z,-0.97
2023-02-03T19:38:46.699Z,-0.96
2023-02-03T19:41:13.702Z,-0.90
2023-02-03T19:43:41.004Z,-0.94
2023-02-03T19:46:08.738Z,-0.97
2023-02-03T19:48:36.574Z,-0.95
2023-02-03T19:51:03.581Z,-0.89
2023-02-03T19:53:30.796Z,-0.91
2023-02-03T19:55:57.778Z,-0.92
2023-02-03T19:58:25.112Z,-0.86
2023-02-03T20:00:52.017Z,-0.99
2023-02-03T20:03:19.911Z,-1.03
2023-02-03T20:05:47.116Z,-1.06
2023-02-03T20:08:16.758Z,-0.99
2023-02-03T20:10:45.459Z,-1.00
2023-02-03T20:13:13.252Z,-0.94
2023-02-03T20:15:40.851Z,-0.88
2023-02-03T20:18:08.549Z,-0.88
2023-02-03T20:20:36.039Z,-0.77
2023-02-03T20:23:03.486Z,-0.79
2023-02-03T20:25:30.439Z,-0.81
2023-02-03T20:27:59.828Z,-0.78
2023-02-03T20:30:28.105Z,-0.80
2023-02-03T20:32:56.273Z,-0.81
2023-02-03T20:35:23.995Z,-0.81
2023-02-03T20:37:51.463Z,-0.84
2023-02-03T20:40:22.553Z,-0.77
2023-02-03T20:42:51.228Z,-0.78
2023-02-03T20:45:20.069Z,-0.80
2023-02-03T20:47:47.958Z,-0.75
2023-02-03T20:50:22.486Z,-0.69
2023-02-03T20:52:52.303Z,-0.69
2023-02-03T20:55:22.190Z,-0.69
2023-02-03T20:57:55.141Z,-0.66
2023-02-03T21:00:26.740Z,-0.60
2023-02-03T21:03:12.539Z,-0.56
2023-02-03T21:05:45.432Z,-0.56
2023-02-03T21:08:16.590Z,-0.56
2023-02-03T21:10:44.638Z,-0.55
2023-02-03T21:13:34.385Z,-0.54
2023-02-03T21:16:05.110Z,-0.47
2023-02-03T21:18:32.287Z,-0.46
2023-02-03T21:20:59.968Z,-0.45
2023-02-03T21:23:36.281Z,-0.44
2023-02-03T21:26:18.156Z,-0.41
2023-02-03T21:28:47.658Z,-0.39
2023-02-03T21:31:24.348Z,-0.35
2023-02-03T21:33:53.845Z,-0.38
2023-02-03T21:36:23.970Z,-0.35
2023-02-03T21:38:57.479Z,-0.29
2023-02-03T21:41:25.836Z,-0.29
2023-02-03T21:43:57.009Z,-0.28
2023-02-03T21:46:26.879Z,-0.26
2023-02-03T21:48:58.393Z,-0.24
2023-02-03T21:51:39.113Z,-0.19
2023-02-03T21:54:30.369Z,-0.17
2023-02-03T21:56:58.348Z,-0.12
2023-02-03T21:59:30.651Z,-0.10
2023-02-03T22:01:58.628Z,-0.09
2023-02-03T22:04:28.364Z,-0.04
2023-02-03T22:06:56.010Z,-0.04
2023-02-03T22:09:25.132Z,0.00
2023-02-03T22:11:52.932Z,0.02
2023-02-03T22:14:23.781Z,0.03
2023-02-03T22:16:50.998Z,0.09
2023-02-03T22:19:18.212Z,0.10
2023-02-03T22:21:45.191Z,0.17
2023-02-03T22:24:12.420Z,0.16
2023-02-03T22:26:39.393Z,0.18
2023-02-03T22:29:06.556Z,0.24
2023-02-03T22:31:33.653Z,0.28
2023-02-03T22:34:00.953Z,0.32
2023-02-03T22:36:27.916Z,0.32
2023-02-03T22:38:55.098Z,0.36
2023-02-03T22:41:22.102Z,0.40
2023-02-03T22:43:49.341Z,0.46
2023-02-03T22:46:16.283Z,0.53
2023-02-03T22:48:43.464Z,0.60
2023-02-03T22:51:10.414Z,0.65
2023-02-03T22:53:39.503Z,0.67
2023-02-03T22:56:06.891Z,0.74
2023-02-03T22:58:34.059Z,0.72
2023-02-03T23:01:01.018Z,0.76
2023-02-03T23:03:32.106Z,0.80
2023-02-03T23:05:59.494Z,0.82
2023-02-03T23:08:26.755Z,0.82
2023-02-03T23:10:53.784Z,0.83
2023-02-03T23:13:21.040Z,0.87
2023-02-03T23:15:47.981Z,0.87
2023-02-03T23:18:15.194Z,0.87
2023-02-03T23:20:42.053Z,0.90
2023-02-03T23:23:09.290Z,0.92
2023-02-03T23:25:36.192Z,0.91
2023-02-03T23:28:03.602Z,0.93
2023-02-03T23:30:30.922Z,0.92
2023-02-03T23:32:58.206Z,0.93
2023-02-03T23:35:43.589Z,0.91
2023-02-03T23:38:10.807Z,0.96
2023-02-03T23:40:37.717Z,0.98
2023-02-03T23:43:04.884Z,0.98
2023-02-03T23:45:31.843Z,1.03
2023-02-03T23:47:59.114Z,1.04
2023-02-03T23:50:26.011Z,1.09
2023-02-03T23:52:53.221Z,1.09
2023-02-03T23:55:21.911Z,1.05
2023-02-03T23:57:49.790Z,1.07
